sensor_id;sensor_type;location;lat;lon;timestamp;temperature;humidity
3816;DHT22;1923;48.154;11.536;2023-07-31T00:02:10;19.10;99.90
3816;DHT22;1923;48.154;11.536;2023-07-31T00:04:39;19.00;99.90
3816;DHT22;1923;48.154;11.536;2023-07-31T00:07:07;19.00;99.90
3816;DHT22;1923;48.154;11.536;2023-07-31T00:09:36;19.00;99.90
3816;DHT22;1923;48.154;11.536;2023-07-31T00:12:05;18.80;99.90
3816;DHT22;1923;48.154;11.536;2023-07-31T00:14:33;18.80;99.90
3816;DHT22;1923;48.154;11.536;2023-07-31T00:17:01;18.80;99.90
3816;DHT22;1923;48.154;11.536;2023-07-31T00:19:30;18.70;99.90
3816;DHT22;1923;48.154;11.536;2023-07-31T00:21:59;18.60;99.90
3816;DHT22;1923;48.154;11.536;2023-07-31T00:24:27;18.60;99.90
3816;DHT22;1923;48.154;11.536;2023-07-31T00:26:55;18.70;99.90
3816;DHT22;1923;48.154;11.536;2023-07-31T00:29:49;18.60;99.90
3816;DHT22;1923;48.154;11.536;2023-07-31T00:32:17;18.60;99.90
3816;DHT22;1923;48.154;11.536;2023-07-31T00:34:45;18.60;99.90
3816;DHT22;1923;48.154;11.536;2023-07-31T00:37:14;18.70;99.90
3816;DHT22;1923;48.154;11.536;2023-07-31T00:39:43;18.70;99.90
3816;DHT22;1923;48.154;11.536;2023-07-31T00:42:11;18.70;99.90
3816;DHT22;1923;48.154;11.536;2023-07-31T00:44:38;18.60;99.90
3816;DHT22;1923;48.154;11.536;2023-07-31T00:47:07;18.70;99.90
3816;DHT22;1923;48.154;11.536;2023-07-31T00:49:35;18.70;99.90
3816;DHT22;1923;48.154;11.536;2023-07-31T00:52:04;18.60;99.90
3816;DHT22;1923;48.154;11.536;2023-07-31T00:54:33;18.60;99.90
3816;DHT22;1923;48.154;11.536;2023-07-31T00:57:02;18.60;99.90
3816;DHT22;1923;48.154;11.536;2023-07-31T00:59:31;18.60;99.90
3816;DHT22;1923;48.154;11.536;2023-07-31T01:01:59;18.50;99.90
3816;DHT22;1923;48.154;11.536;2023-07-31T01:04:27;18.50;99.90
3816;DHT22;1923;48.154;11.536;2023-07-31T01:07:01;18.50;99.90
3816;DHT22;1923;48.154;11.536;2023-07-31T01:09:37;18.50;99.90
3816;DHT22;1923;48.154;11.536;2023-07-31T01:12:09;18.50;99.90
3816;DHT22;1923;48.154;11.536;2023-07-31T01:14:38;18.50;99.90
3816;DHT22;1923;48.154;11.536;2023-07-31T01:17:06;18.50;99.90
3816;DHT22;1923;48.154;11.536;2023-07-31T01:19:34;18.50;99.90
3816;DHT22;1923;48.154;11.536;2023-07-31T01:22:15;18.50;99.90
3816;DHT22;1923;48.154;11.536;2023-07-31T01:24:55;18.60;99.90
3816;DHT22;1923;48.154;11.536;2023-07-31T01:27:30;18.60;99.90
3816;DHT22;1923;48.154;11.536;2023-07-31T01:30:07;18.60;99.90
3816;DHT22;1923;48.154;11.536;2023-07-31T01:32:39;18.60;99.90
3816;DHT22;1923;48.154;11.536;2023-07-31T01:35:08;18.70;99.90
3816;DHT22;1923;48.154;11.536;2023-07-31T01:37:36;18.60;99.90
3816;DHT22;1923;48.154;11.536;2023-07-31T01:40:05;18.60;99.90
3816;DHT22;1923;48.154;11.536;2023-07-31T01:42:35;18.60;99.90
3816;DHT22;1923;48.154;11.536;2023-07-31T01:45:04;18.60;99.90
3816;DHT22;1923;48.154;11.536;2023-07-31T01:47:33;18.60;99.90
3816;DHT22;1923;48.154;11.536;2023-07-31T01:50:01;18.60;99.90
3816;DHT22;1923;48.154;11.536;2023-07-31T01:52:29;18.60;99.90
3816;DHT22;1923;48.154;11.536;2023-07-31T01:54:57;18.50;99.90
3816;DHT22;1923;48.154;11.536;2023-07-31T01:57:25;18.60;99.90
3816;DHT22;1923;48.154;11.536;2023-07-31T01:59:54;18.60;99.90
3816;DHT22;1923;48.154;11.536;2023-07-31T02:02:22;18.70;99.90
3816;DHT22;1923;48.154;11.536;2023-07-31T02:04:52;18.70;99.90
3816;DHT22;1923;48.154;11.536;2023-07-31T02:07:20;18.70;99.90
3816;DHT22;1923;48.154;11.536;2023-07-31T02:09:48;18.70;99.90
3816;DHT22;1923;48.154;11.536;2023-07-31T02:12:16;18.70;99.90
3816;DHT22;1923;48.154;11.536;2023-07-31T02:14:44;18.70;99.90
3816;DHT22;1923;48.154;11.536;2023-07-31T02:17:14;18.80;99.90
3816;DHT22;1923;48.154;11.536;2023-07-31T02:19:42;18.80;99.90
3816;DHT22;1923;48.154;11.536;2023-07-31T02:22:10;18.80;99.90
3816;DHT22;1923;48.154;11.536;2023-07-31T02:24:38;18.80;99.90
3816;DHT22;1923;48.154;11.536;2023-07-31T02:27:06;18.80;99.90
3816;DHT22;1923;48.154;11.536;2023-07-31T02:29:34;18.80;99.90
3816;DHT22;1923;48.154;11.536;2023-07-31T02:32:03;18.90;99.90
3816;DHT22;1923;48.154;11.536;2023-07-31T02:34:33;18.90;99.90
3816;DHT22;1923;48.154;11.536;2023-07-31T02:37:01;18.90;99.90
3816;DHT22;1923;48.154;11.536;2023-07-31T02:39:28;18.80;99.90
3816;DHT22;1923;48.154;11.536;2023-07-31T02:41:56;18.90;99.90
3816;DHT22;1923;48.154;11.536;2023-07-31T02:44:24;18.80;99.90
3816;DHT22;1923;48.154;11.536;2023-07-31T02:46:52;18.80;99.90
3816;DHT22;1923;48.154;11.536;2023-07-31T02:49:20;18.90;99.90
3816;DHT22;1923;48.154;11.536;2023-07-31T02:51:50;18.80;99.90
3816;DHT22;1923;48.154;11.536;2023-07-31T02:54:18;18.80;99.90
3816;DHT22;1923;48.154;11.536;2023-07-31T02:56:48;18.70;99.90
3816;DHT22;1923;48.154;11.536;2023-07-31T02:59:17;18.60;99.90
3816;DHT22;1923;48.154;11.536;2023-07-31T03:01:45;18.50;99.90
3816;DHT22;1923;48.154;11.536;2023-07-31T03:04:13;18.50;99.90
3816;DHT22;1923;48.154;11.536;2023-07-31T03:06:44;18.50;99.90
3816;DHT22;1923;48.154;11.536;2023-07-31T03:09:13;18.40;99.90
3816;DHT22;1923;48.154;11.536;2023-07-31T03:11:42;18.30;99.90
3816;DHT22;1923;48.154;11.536;2023-07-31T03:14:10;18.30;99.90
3816;DHT22;1923;48.154;11.536;2023-07-31T03:16:38;18.30;99.90
3816;DHT22;1923;48.154;11.536;2023-07-31T03:19:06;18.20;99.90
3816;DHT22;1923;48.154;11.536;2023-07-31T03:21:35;18.20;99.90
3816;DHT22;1923;48.154;11.536;2023-07-31T03:24:04;18.20;99.90
3816;DHT22;1923;48.154;11.536;2023-07-31T03:26:33;18.20;99.90
3816;DHT22;1923;48.154;11.536;2023-07-31T03:29:03;18.10;99.90
3816;DHT22;1923;48.154;11.536;2023-07-31T03:31:31;18.10;99.90
3816;DHT22;1923;48.154;11.536;2023-07-31T03:33:59;18.00;99.90
3816;DHT22;1923;48.154;11.536;2023-07-31T03:36:27;18.00;99.90
3816;DHT22;1923;48.154;11.536;2023-07-31T03:38:55;18.00;99.90
3816;DHT22;1923;48.154;11.536;2023-07-31T03:41:23;18.00;99.90
3816;DHT22;1923;48.154;11.536;2023-07-31T03:43:53;18.00;99.90
3816;DHT22;1923;48.154;11.536;2023-07-31T03:46:22;17.90;99.90
3816;DHT22;1923;48.154;11.536;2023-07-31T03:48:51;18.00;99.90
3816;DHT22;1923;48.154;11.536;2023-07-31T03:51:19;18.00;99.90
3816;DHT22;1923;48.154;11.536;2023-07-31T03:53:47;18.00;99.90
3816;DHT22;1923;48.154;11.536;2023-07-31T03:56:15;18.00;99.90
3816;DHT22;1923;48.154;11.536;2023-07-31T03:58:43;17.90;99.90
3816;DHT22;1923;48.154;11.536;2023-07-31T04:01:13;18.00;99.90
3816;DHT22;1923;48.154;11.536;2023-07-31T04:03:41;18.00;99.90
3816;DHT22;1923;48.154;11.536;2023-07-31T04:06:09;18.00;99.90
3816;DHT22;1923;48.154;11.536;2023-07-31T04:08:37;18.10;99.90
3816;DHT22;1923;48.154;11.536;2023-07-31T04:11:05;18.10;99.90
3816;DHT22;1923;48.154;11.536;2023-07-31T04:13:34;18.00;99.90
3816;DHT22;1923;48.154;11.536;2023-07-31T04:16:02;18.00;99.90
3816;DHT22;1923;48.154;11.536;2023-07-31T04:18:32;18.00;99.90
3816;DHT22;1923;48.154;11.536;2023-07-31T04:21:00;18.10;99.90
3816;DHT22;1923;48.154;11.536;2023-07-31T04:23:29;18.00;99.90
3816;DHT22;1923;48.154;11.536;2023-07-31T04:25:57;18.10;99.90
3816;DHT22;1923;48.154;11.536;2023-07-31T04:28:25;18.10;99.90
3816;DHT22;1923;48.154;11.536;2023-07-31T04:30:53;18.10;99.90
3816;DHT22;1923;48.154;11.536;2023-07-31T04:33:21;18.10;99.90
3816;DHT22;1923;48.154;11.536;2023-07-31T04:35:52;18.10;99.90
3816;DHT22;1923;48.154;11.536;2023-07-31T04:38:20;18.10;99.90
3816;DHT22;1923;48.154;11.536;2023-07-31T04:40:49;17.90;99.90
3816;DHT22;1923;48.154;11.536;2023-07-31T04:43:17;18.10;99.90
3816;DHT22;1923;48.154;11.536;2023-07-31T04:45:45;18.10;99.90
3816;DHT22;1923;48.154;11.536;2023-07-31T04:48:14;18.10;99.90
3816;DHT22;1923;48.154;11.536;2023-07-31T04:50:43;18.10;99.90
3816;DHT22;1923;48.154;11.536;2023-07-31T04:53:12;18.10;99.90
3816;DHT22;1923;48.154;11.536;2023-07-31T04:55:40;18.10;99.90
3816;DHT22;1923;48.154;11.536;2023-07-31T04:58:08;18.10;99.90
3816;DHT22;1923;48.154;11.536;2023-07-31T05:00:36;18.20;99.90
3816;DHT22;1923;48.154;11.536;2023-07-31T05:03:07;18.20;99.90
3816;DHT22;1923;48.154;11.536;2023-07-31T05:05:37;18.30;99.90
3816;DHT22;1923;48.154;11.536;2023-07-31T05:08:06;18.30;99.90
3816;DHT22;1923;48.154;11.536;2023-07-31T05:10:35;18.40;99.90
3816;DHT22;1923;48.154;11.536;2023-07-31T05:13:03;18.40;99.90
3816;DHT22;1923;48.154;11.536;2023-07-31T05:15:31;18.40;99.90
3816;DHT22;1923;48.154;11.536;2023-07-31T05:17:59;18.50;99.90
3816;DHT22;1923;48.154;11.536;2023-07-31T05:20:28;18.60;99.90
3816;DHT22;1923;48.154;11.536;2023-07-31T05:22:55;18.70;99.90
3816;DHT22;1923;48.154;11.536;2023-07-31T05:25:23;18.80;99.90
3816;DHT22;1923;48.154;11.536;2023-07-31T05:27:53;18.90;99.90
3816;DHT22;1923;48.154;11.536;2023-07-31T05:30:23;19.10;99.90
3816;DHT22;1923;48.154;11.536;2023-07-31T05:32:51;19.20;99.90
3816;DHT22;1923;48.154;11.536;2023-07-31T05:35:20;19.40;99.90
3816;DHT22;1923;48.154;11.536;2023-07-31T05:37:48;19.50;99.90
3816;DHT22;1923;48.154;11.536;2023-07-31T05:40:16;19.60;99.90
3816;DHT22;1923;48.154;11.536;2023-07-31T05:42:44;19.70;99.90
3816;DHT22;1923;48.154;11.536;2023-07-31T05:45:13;19.90;99.90
3816;DHT22;1923;48.154;11.536;2023-07-31T05:47:41;19.90;99.90
3816;DHT22;1923;48.154;11.536;2023-07-31T05:50:09;19.80;99.90
3816;DHT22;1923;48.154;11.536;2023-07-31T05:52:37;20.00;99.90
3816;DHT22;1923;48.154;11.536;2023-07-31T05:55:06;20.00;99.90
3816;DHT22;1923;48.154;11.536;2023-07-31T05:57:34;20.10;99.90
3816;DHT22;1923;48.154;11.536;2023-07-31T06:00:03;20.20;99.90
3816;DHT22;1923;48.154;11.536;2023-07-31T06:02:57;20.20;99.90
3816;DHT22;1923;48.154;11.536;2023-07-31T06:05:25;20.30;99.90
3816;DHT22;1923;48.154;11.536;2023-07-31T06:07:55;20.30;99.90
3816;DHT22;1923;48.154;11.536;2023-07-31T06:10:23;20.40;99.90
3816;DHT22;1923;48.154;11.536;2023-07-31T06:12:51;20.50;99.90
3816;DHT22;1923;48.154;11.536;2023-07-31T06:15:19;20.50;99.90
3816;DHT22;1923;48.154;11.536;2023-07-31T06:17:47;20.80;99.90
3816;DHT22;1923;48.154;11.536;2023-07-31T06:20:17;20.90;99.90
3816;DHT22;1923;48.154;11.536;2023-07-31T06:22:45;21.00;99.90
3816;DHT22;1923;48.154;11.536;2023-07-31T06:25:13;21.10;99.90
3816;DHT22;1923;48.154;11.536;2023-07-31T06:27:44;21.10;99.90
3816;DHT22;1923;48.154;11.536;2023-07-31T06:30:12;21.20;99.90
3816;DHT22;1923;48.154;11.536;2023-07-31T06:32:40;21.40;99.90
3816;DHT22;1923;48.154;11.536;2023-07-31T06:35:08;21.50;99.90
3816;DHT22;1923;48.154;11.536;2023-07-31T06:37:38;21.50;99.90
3816;DHT22;1923;48.154;11.536;2023-07-31T06:40:08;21.40;99.90
3816;DHT22;1923;48.154;11.536;2023-07-31T06:42:36;21.20;99.90
3816;DHT22;1923;48.154;11.536;2023-07-31T06:45:05;21.30;99.90
3816;DHT22;1923;48.154;11.536;2023-07-31T06:47:34;21.40;99.90
3816;DHT22;1923;48.154;11.536;2023-07-31T06:50:03;21.30;99.90
3816;DHT22;1923;48.154;11.536;2023-07-31T06:52:31;21.40;99.90
3816;DHT22;1923;48.154;11.536;2023-07-31T06:55:15;21.50;99.90
3816;DHT22;1923;48.154;11.536;2023-07-31T06:57:44;21.60;99.90
3816;DHT22;1923;48.154;11.536;2023-07-31T07:00:13;21.60;99.90
3816;DHT22;1923;48.154;11.536;2023-07-31T07:02:41;21.70;99.90
3816;DHT22;1923;48.154;11.536;2023-07-31T07:05:10;21.80;99.90
3816;DHT22;1923;48.154;11.536;2023-07-31T07:07:39;21.90;99.90
3816;DHT22;1923;48.154;11.536;2023-07-31T07:10:09;22.00;99.90
3816;DHT22;1923;48.154;11.536;2023-07-31T07:12:37;21.90;99.90
3816;DHT22;1923;48.154;11.536;2023-07-31T07:15:06;22.00;99.90
3816;DHT22;1923;48.154;11.536;2023-07-31T07:17:34;21.90;99.90
3816;DHT22;1923;48.154;11.536;2023-07-31T07:20:04;22.10;99.90
3816;DHT22;1923;48.154;11.536;2023-07-31T07:22:32;21.90;99.90
3816;DHT22;1923;48.154;11.536;2023-07-31T07:25:00;21.80;99.90
3816;DHT22;1923;48.154;11.536;2023-07-31T07:27:30;21.70;99.90
3816;DHT22;1923;48.154;11.536;2023-07-31T07:29:58;21.90;99.90
3816;DHT22;1923;48.154;11.536;2023-07-31T07:32:26;22.00;99.90
3816;DHT22;1923;48.154;11.536;2023-07-31T07:34:55;22.10;99.90
3816;DHT22;1923;48.154;11.536;2023-07-31T07:37:23;22.20;99.90
3816;DHT22;1923;48.154;11.536;2023-07-31T07:39:51;22.10;99.90
3816;DHT22;1923;48.154;11.536;2023-07-31T07:42:19;22.20;99.90
3816;DHT22;1923;48.154;11.536;2023-07-31T07:44:49;22.40;99.90
3816;DHT22;1923;48.154;11.536;2023-07-31T07:47:17;22.50;99.90
3816;DHT22;1923;48.154;11.536;2023-07-31T07:49:45;22.60;99.90
3816;DHT22;1923;48.154;11.536;2023-07-31T07:52:19;22.60;99.90
3816;DHT22;1923;48.154;11.536;2023-07-31T07:54:47;22.70;99.90
3816;DHT22;1923;48.154;11.536;2023-07-31T07:57:15;22.80;99.90
3816;DHT22;1923;48.154;11.536;2023-07-31T07:59:43;22.90;99.90
3816;DHT22;1923;48.154;11.536;2023-07-31T08:02:13;23.00;99.90
3816;DHT22;1923;48.154;11.536;2023-07-31T08:04:41;23.10;99.90
3816;DHT22;1923;48.154;11.536;2023-07-31T08:07:10;23.20;99.90
3816;DHT22;1923;48.154;11.536;2023-07-31T08:09:39;23.40;99.90
3816;DHT22;1923;48.154;11.536;2023-07-31T08:12:07;23.50;99.90
3816;DHT22;1923;48.154;11.536;2023-07-31T08:14:35;23.50;99.90
3816;DHT22;1923;48.154;11.536;2023-07-31T08:17:03;23.60;99.90
3816;DHT22;1923;48.154;11.536;2023-07-31T08:19:34;23.70;99.90
3816;DHT22;1923;48.154;11.536;2023-07-31T08:22:03;23.70;99.90
3816;DHT22;1923;48.154;11.536;2023-07-31T08:24:31;23.80;99.90
3816;DHT22;1923;48.154;11.536;2023-07-31T08:26:59;23.90;99.90
3816;DHT22;1923;48.154;11.536;2023-07-31T08:29:28;24.20;99.90
3816;DHT22;1923;48.154;11.536;2023-07-31T08:31:56;24.60;99.90
3816;DHT22;1923;48.154;11.536;2023-07-31T08:34:24;24.70;99.90
3816;DHT22;1923;48.154;11.536;2023-07-31T08:36:53;24.70;99.90
3816;DHT22;1923;48.154;11.536;2023-07-31T08:39:21;24.70;99.90
3816;DHT22;1923;48.154;11.536;2023-07-31T08:41:49;24.60;99.90
3816;DHT22;1923;48.154;11.536;2023-07-31T08:44:18;24.50;99.90
3816;DHT22;1923;48.154;11.536;2023-07-31T08:46:48;24.50;99.90
3816;DHT22;1923;48.154;11.536;2023-07-31T08:49:17;24.30;99.90
3816;DHT22;1923;48.154;11.536;2023-07-31T08:51:46;24.20;99.90
3816;DHT22;1923;48.154;11.536;2023-07-31T08:54:18;24.10;99.90
3816;DHT22;1923;48.154;11.536;2023-07-31T08:56:46;24.00;99.90
3816;DHT22;1923;48.154;11.536;2023-07-31T08:59:15;23.80;99.90
3816;DHT22;1923;48.154;11.536;2023-07-31T09:01:51;23.60;99.90
3816;DHT22;1923;48.154;11.536;2023-07-31T09:04:22;23.50;99.90
3816;DHT22;1923;48.154;11.536;2023-07-31T09:06:55;23.40;99.90
3816;DHT22;1923;48.154;11.536;2023-07-31T09:09:26;23.40;99.90
3816;DHT22;1923;48.154;11.536;2023-07-31T09:11:55;23.40;99.90
3816;DHT22;1923;48.154;11.536;2023-07-31T09:14:25;23.70;99.90
3816;DHT22;1923;48.154;11.536;2023-07-31T09:16:54;24.30;99.90
3816;DHT22;1923;48.154;11.536;2023-07-31T09:19:25;24.70;99.90
3816;DHT22;1923;48.154;11.536;2023-07-31T09:21:54;25.10;99.90
3816;DHT22;1923;48.154;11.536;2023-07-31T09:24:28;25.40;99.90
3816;DHT22;1923;48.154;11.536;2023-07-31T09:26:57;25.50;99.90
3816;DHT22;1923;48.154;11.536;2023-07-31T09:29:27;25.60;99.90
3816;DHT22;1923;48.154;11.536;2023-07-31T09:31:55;25.70;99.90
3816;DHT22;1923;48.154;11.536;2023-07-31T09:34:29;25.70;99.90
3816;DHT22;1923;48.154;11.536;2023-07-31T09:37:01;26.00;99.90
3816;DHT22;1923;48.154;11.536;2023-07-31T09:39:31;26.30;99.90
3816;DHT22;1923;48.154;11.536;2023-07-31T09:41:59;26.80;99.90
3816;DHT22;1923;48.154;11.536;2023-07-31T09:44:40;27.60;99.20
3816;DHT22;1923;48.154;11.536;2023-07-31T09:47:21;28.60;96.60
3816;DHT22;1923;48.154;11.536;2023-07-31T09:49:52;29.50;95.70
3816;DHT22;1923;48.154;11.536;2023-07-31T09:52:20;30.30;94.20
3816;DHT22;1923;48.154;11.536;2023-07-31T09:54:50;31.90;92.00
3816;DHT22;1923;48.154;11.536;2023-07-31T09:57:21;33.80;88.70
3816;DHT22;1923;48.154;11.536;2023-07-31T09:59:52;34.60;83.10
3816;DHT22;1923;48.154;11.536;2023-07-31T10:02:22;35.40;78.50
3816;DHT22;1923;48.154;11.536;2023-07-31T10:04:50;36.00;74.90
3816;DHT22;1923;48.154;11.536;2023-07-31T10:07:20;36.50;71.00
3816;DHT22;1923;48.154;11.536;2023-07-31T10:09:52;35.10;68.60
3816;DHT22;1923;48.154;11.536;2023-07-31T10:12:23;34.40;71.80
3816;DHT22;1923;48.154;11.536;2023-07-31T10:14:54;33.70;73.40
3816;DHT22;1923;48.154;11.536;2023-07-31T10:17:23;33.90;74.90
3816;DHT22;1923;48.154;11.536;2023-07-31T10:19:51;34.60;72.20
3816;DHT22;1923;48.154;11.536;2023-07-31T10:22:20;35.20;68.70
3816;DHT22;1923;48.154;11.536;2023-07-31T10:24:50;36.50;65.30
3816;DHT22;1923;48.154;11.536;2023-07-31T10:27:20;36.40;63.70
3816;DHT22;1923;48.154;11.536;2023-07-31T10:29:48;36.70;64.50
3816;DHT22;1923;48.154;11.536;2023-07-31T10:32:18;36.50;61.30
3816;DHT22;1923;48.154;11.536;2023-07-31T10:34:49;35.50;61.40
3816;DHT22;1923;48.154;11.536;2023-07-31T10:37:23;35.10;63.20
3816;DHT22;1923;48.154;11.536;2023-07-31T10:40:00;34.20;64.00
3816;DHT22;1923;48.154;11.536;2023-07-31T10:42:30;33.70;65.60
3816;DHT22;1923;48.154;11.536;2023-07-31T10:44:59;33.40;67.10
3816;DHT22;1923;48.154;11.536;2023-07-31T10:47:27;32.90;67.10
3816;DHT22;1923;48.154;11.536;2023-07-31T10:50:12;32.20;67.70
3816;DHT22;1923;48.154;11.536;2023-07-31T10:52:40;31.50;71.10
3816;DHT22;1923;48.154;11.536;2023-07-31T10:55:24;31.00;70.30
3816;DHT22;1923;48.154;11.536;2023-07-31T10:57:52;30.40;71.40
3816;DHT22;1923;48.154;11.536;2023-07-31T11:00:23;30.20;72.40
3816;DHT22;1923;48.154;11.536;2023-07-31T11:03:03;30.20;73.40
3816;DHT22;1923;48.154;11.536;2023-07-31T11:05:49;30.80;72.60
3816;DHT22;1923;48.154;11.536;2023-07-31T11:08:19;31.60;70.70
3816;DHT22;1923;48.154;11.536;2023-07-31T11:10:50;32.70;69.10
3816;DHT22;1923;48.154;11.536;2023-07-31T11:13:19;33.00;67.90
3816;DHT22;1923;48.154;11.536;2023-07-31T11:15:46;33.40;67.70
3816;DHT22;1923;48.154;11.536;2023-07-31T11:18:15;33.30;67.90
3816;DHT22;1923;48.154;11.536;2023-07-31T11:20:43;32.70;67.90
3816;DHT22;1923;48.154;11.536;2023-07-31T11:23:12;32.10;68.50
3816;DHT22;1923;48.154;11.536;2023-07-31T11:25:40;31.80;70.60
3816;DHT22;1923;48.154;11.536;2023-07-31T11:28:13;31.10;70.80
3816;DHT22;1923;48.154;11.536;2023-07-31T11:30:42;30.50;71.50
3816;DHT22;1923;48.154;11.536;2023-07-31T11:33:12;30.10;72.70
3816;DHT22;1923;48.154;11.536;2023-07-31T11:35:44;29.50;73.40
3816;DHT22;1923;48.154;11.536;2023-07-31T11:38:21;29.20;74.20
3816;DHT22;1923;48.154;11.536;2023-07-31T11:40:51;28.70;74.80
3816;DHT22;1923;48.154;11.536;2023-07-31T11:43:21;28.60;75.00
3816;DHT22;1923;48.154;11.536;2023-07-31T11:45:51;28.40;76.90
3816;DHT22;1923;48.154;11.536;2023-07-31T11:48:20;28.10;75.30
3816;DHT22;1923;48.154;11.536;2023-07-31T11:50:50;28.10;75.90
3816;DHT22;1923;48.154;11.536;2023-07-31T11:53:21;27.80;75.80
3816;DHT22;1923;48.154;11.536;2023-07-31T11:55:52;27.70;78.60
3816;DHT22;1923;48.154;11.536;2023-07-31T11:58:22;27.50;77.50
3816;DHT22;1923;48.154;11.536;2023-07-31T12:00:51;27.30;77.50
3816;DHT22;1923;48.154;11.536;2023-07-31T12:03:19;27.20;78.80
3816;DHT22;1923;48.154;11.536;2023-07-31T12:05:48;27.10;79.90
3816;DHT22;1923;48.154;11.536;2023-07-31T12:08:16;27.00;80.80
3816;DHT22;1923;48.154;11.536;2023-07-31T12:10:44;27.00;78.70
3816;DHT22;1923;48.154;11.536;2023-07-31T12:13:22;26.70;79.10
3816;DHT22;1923;48.154;11.536;2023-07-31T12:15:54;26.80;81.40
3816;DHT22;1923;48.154;11.536;2023-07-31T12:18:25;26.60;80.50
3816;DHT22;1923;48.154;11.536;2023-07-31T12:20:55;26.40;80.00
3816;DHT22;1923;48.154;11.536;2023-07-31T12:23:26;26.40;80.40
3816;DHT22;1923;48.154;11.536;2023-07-31T12:26:03;26.60;80.70
3816;DHT22;1923;48.154;11.536;2023-07-31T12:28:36;26.60;82.00
3816;DHT22;1923;48.154;11.536;2023-07-31T12:31:05;26.80;82.20
3816;DHT22;1923;48.154;11.536;2023-07-31T12:33:35;26.90;81.00
3816;DHT22;1923;48.154;11.536;2023-07-31T12:36:05;26.90;78.50
3816;DHT22;1923;48.154;11.536;2023-07-31T12:38:35;27.00;80.50
3816;DHT22;1923;48.154;11.536;2023-07-31T12:41:03;27.00;80.40
3816;DHT22;1923;48.154;11.536;2023-07-31T12:43:34;27.00;79.70
3816;DHT22;1923;48.154;11.536;2023-07-31T12:46:03;27.20;81.10
3816;DHT22;1923;48.154;11.536;2023-07-31T12:48:32;27.30;79.20
3816;DHT22;1923;48.154;11.536;2023-07-31T12:51:00;27.30;79.30
3816;DHT22;1923;48.154;11.536;2023-07-31T12:53:29;27.20;80.00
3816;DHT22;1923;48.154;11.536;2023-07-31T12:55:57;27.30;80.80
3816;DHT22;1923;48.154;11.536;2023-07-31T12:58:25;27.20;79.80
3816;DHT22;1923;48.154;11.536;2023-07-31T13:00:53;27.40;79.80
3816;DHT22;1923;48.154;11.536;2023-07-31T13:03:23;27.30;79.50
3816;DHT22;1923;48.154;11.536;2023-07-31T13:05:51;27.10;80.20
3816;DHT22;1923;48.154;11.536;2023-07-31T13:08:20;27.00;80.30
3816;DHT22;1923;48.154;11.536;2023-07-31T13:10:48;27.00;82.50
3816;DHT22;1923;48.154;11.536;2023-07-31T13:13:16;27.00;82.40
3816;DHT22;1923;48.154;11.536;2023-07-31T13:15:44;27.00;82.50
3816;DHT22;1923;48.154;11.536;2023-07-31T13:18:12;27.10;83.50
3816;DHT22;1923;48.154;11.536;2023-07-31T13:20:42;27.00;83.00
3816;DHT22;1923;48.154;11.536;2023-07-31T13:23:10;27.10;82.80
3816;DHT22;1923;48.154;11.536;2023-07-31T13:25:38;27.20;82.70
3816;DHT22;1923;48.154;11.536;2023-07-31T13:28:08;27.20;80.70
3816;DHT22;1923;48.154;11.536;2023-07-31T13:30:36;27.20;79.60
3816;DHT22;1923;48.154;11.536;2023-07-31T13:33:04;27.30;79.10
3816;DHT22;1923;48.154;11.536;2023-07-31T13:35:45;27.40;80.50
3816;DHT22;1923;48.154;11.536;2023-07-31T13:38:12;27.50;78.70
3816;DHT22;1923;48.154;11.536;2023-07-31T13:40:40;27.50;79.10
3816;DHT22;1923;48.154;11.536;2023-07-31T13:43:09;27.40;80.60
3816;DHT22;1923;48.154;11.536;2023-07-31T13:45:37;27.30;80.00
3816;DHT22;1923;48.154;11.536;2023-07-31T13:48:05;27.40;80.60
3816;DHT22;1923;48.154;11.536;2023-07-31T13:50:33;27.30;80.60
3816;DHT22;1923;48.154;11.536;2023-07-31T13:53:03;27.20;80.80
3816;DHT22;1923;48.154;11.536;2023-07-31T13:55:31;27.00;80.20
3816;DHT22;1923;48.154;11.536;2023-07-31T13:58:02;27.00;81.10
3816;DHT22;1923;48.154;11.536;2023-07-31T14:00:30;26.90;81.70
3816;DHT22;1923;48.154;11.536;2023-07-31T14:02:58;26.90;82.40
3816;DHT22;1923;48.154;11.536;2023-07-31T14:05:28;27.00;81.50
3816;DHT22;1923;48.154;11.536;2023-07-31T14:07:56;26.70;79.00
3816;DHT22;1923;48.154;11.536;2023-07-31T14:10:26;26.60;78.20
3816;DHT22;1923;48.154;11.536;2023-07-31T14:12:54;26.50;78.70
3816;DHT22;1923;48.154;11.536;2023-07-31T14:15:22;26.60;80.10
3816;DHT22;1923;48.154;11.536;2023-07-31T14:17:50;26.70;79.70
3816;DHT22;1923;48.154;11.536;2023-07-31T14:20:18;26.80;81.00
3816;DHT22;1923;48.154;11.536;2023-07-31T14:22:47;26.90;80.50
3816;DHT22;1923;48.154;11.536;2023-07-31T14:25:15;27.00;81.50
3816;DHT22;1923;48.154;11.536;2023-07-31T14:27:45;27.00;82.20
3816;DHT22;1923;48.154;11.536;2023-07-31T14:30:13;27.00;80.10
3816;DHT22;1923;48.154;11.536;2023-07-31T14:32:41;27.00;81.60
3816;DHT22;1923;48.154;11.536;2023-07-31T14:35:09;27.00;82.20
3816;DHT22;1923;48.154;11.536;2023-07-31T14:37:38;27.00;81.30
3816;DHT22;1923;48.154;11.536;2023-07-31T14:40:07;27.10;81.10
3816;DHT22;1923;48.154;11.536;2023-07-31T14:42:36;27.10;80.60
3816;DHT22;1923;48.154;11.536;2023-07-31T14:45:07;27.00;80.70
3816;DHT22;1923;48.154;11.536;2023-07-31T14:47:36;27.00;81.30
3816;DHT22;1923;48.154;11.536;2023-07-31T14:50:06;26.80;81.00
3816;DHT22;1923;48.154;11.536;2023-07-31T14:52:34;26.80;81.90
3816;DHT22;1923;48.154;11.536;2023-07-31T14:55:02;26.70;81.60
3816;DHT22;1923;48.154;11.536;2023-07-31T14:57:31;26.80;82.30
3816;DHT22;1923;48.154;11.536;2023-07-31T14:59:59;26.80;82.20
3816;DHT22;1923;48.154;11.536;2023-07-31T15:02:28;26.70;82.40
3816;DHT22;1923;48.154;11.536;2023-07-31T15:04:56;26.80;81.90
3816;DHT22;1923;48.154;11.536;2023-07-31T15:07:24;26.80;82.00
3816;DHT22;1923;48.154;11.536;2023-07-31T15:09:52;26.80;82.00
3816;DHT22;1923;48.154;11.536;2023-07-31T15:12:20;26.80;80.30
3816;DHT22;1923;48.154;11.536;2023-07-31T15:14:49;26.70;80.30
3816;DHT22;1923;48.154;11.536;2023-07-31T15:17:18;26.60;81.60
3816;DHT22;1923;48.154;11.536;2023-07-31T15:19:48;26.60;81.60
3816;DHT22;1923;48.154;11.536;2023-07-31T15:22:16;26.60;81.50
3816;DHT22;1923;48.154;11.536;2023-07-31T15:24:44;26.40;82.10
3816;DHT22;1923;48.154;11.536;2023-07-31T15:27:12;26.30;82.90
3816;DHT22;1923;48.154;11.536;2023-07-31T15:29:41;26.20;83.30
3816;DHT22;1923;48.154;11.536;2023-07-31T15:32:09;26.30;85.00
3816;DHT22;1923;48.154;11.536;2023-07-31T15:34:37;26.30;84.70
3816;DHT22;1923;48.154;11.536;2023-07-31T15:37:07;26.30;85.30
3816;DHT22;1923;48.154;11.536;2023-07-31T15:39:35;26.30;84.70
3816;DHT22;1923;48.154;11.536;2023-07-31T15:42:03;26.20;84.70
3816;DHT22;1923;48.154;11.536;2023-07-31T15:44:32;26.00;84.80
3816;DHT22;1923;48.154;11.536;2023-07-31T15:47:01;25.90;85.70
3816;DHT22;1923;48.154;11.536;2023-07-31T15:49:29;25.80;86.90
3816;DHT22;1923;48.154;11.536;2023-07-31T15:51:57;25.70;87.60
3816;DHT22;1923;48.154;11.536;2023-07-31T15:54:27;25.60;87.30
3816;DHT22;1923;48.154;11.536;2023-07-31T15:56:55;25.50;87.90
3816;DHT22;1923;48.154;11.536;2023-07-31T15:59:23;25.30;89.10